Station: Snowtown

  Atmospheric Gas Attenuation - ITU Rec 676-11   --------------- db/100km ---------------
Date Time Temp RH % AH g/m3 Dew Point Wind Direction Speed kph Gust kph Barometer mB Rainfall Since 9am 24GHz 47GHz 76GHz 122GHz 134GHz 241GHz
17 01:40 3.3 92 5.59 2.1 7 9 1021.6 0 13.6 24.2 32.7 85.3 70.1 237.6
17 01:30 3.4 92 5.62 2.2 11 13 1021.8 0 13.6 24.3 32.8 85.5 70.4 238.8
17 01:20 3.5 91 5.6 2.2 11 11 1021.6 0 13.6 24.2 32.7 85.1 70.0 237.5
17 01:10 3.9 92 5.82 2.7 13 13 1021.6 0 14.0 24.4 33.4 87.1 72.6 246.7
17 01:00 3.6 92 5.7 2.4 11 13 1021.8 0 13.8 24.3 33.0 86.2 71.3 242.0
17 00:50 3.8 92 5.78 2.6 9 9 1021.8 0 14.0 24.4 33.3 86.8 72.2 245.2
17 00:40 3.6 92 5.7 2.4 9 9 1021.9 0 13.8 24.3 33.0 86.2 71.3 242.0
17 00:30 3.5 91 5.6 2.2 9 11 1022.1 0 13.6 24.2 32.7 85.2 70.0 237.6
17 00:20 3.9 91 5.75 2.6 11 11 1022.1 0 13.9 24.3 33.1 86.4 71.7 243.5
17 00:10 4.4 90 5.88 2.9 11 11 1022.2 0 14.1 24.4 33.5 87.3 73.0 248.1
17 00:00 5.3 90 6.24 3.8 15 17 1022.5 0 14.9 24.8 34.6 90.3 77.1 262.4
16 23:50 5.4 91 6.35 4.1 15 15 1022.4 0 15.1 24.9 35.0 91.4 78.5 267.3
16 23:40 5 93 6.32 4 17 19 1022.5 0 15.1 25.0 35.0 91.5 78.5 267.3
16 23:30 4.9 93 6.28 3.9 15 17 1022.8 0 15.0 25.0 34.9 91.2 78.0 265.8
16 23:20 4.7 94 6.27 3.8 17 17 1022.6 0 15.0 25.0 35.0 91.3 78.1 265.9
16 23:10 3.6 93 5.76 2.6 13 15 1022.6 0 13.9 24.5 33.3 86.9 72.2 245.0
16 23:00 4 93 5.92 3 9 11 1022.8 0 14.3 24.6 33.8 88.2 74.0 251.5
16 22:50 4.1 94 6.02 3.2 11 11 1022.7 0 14.5 24.8 34.2 89.2 75.2 255.9
16 22:40 3.5 93 5.72 2.5 11 13 1022.7 0 13.8 24.4 33.2 86.6 71.7 243.4
16 22:30 3.7 94 5.86 2.8 9 9 1022.9 0 14.1 24.6 33.7 87.9 73.5 249.6
16 22:20 3 93 5.53 2 7 9 1022.9 0 13.4 24.3 32.6 85.0 69.6 235.9
16 22:10 3.1 92 5.51 1.9 7 7 1023.1 0 13.4 24.2 32.5 84.7 69.2 234.7
16 22:00 4.6 94 6.22 3.7 9 11 1023.2 0 14.9 25.0 34.8 90.9 77.5 264.0
16 21:50 3.4 93 5.69 2.4 11 11 1023.1 0 13.8 24.4 33.1 86.4 71.4 242.4
16 21:40 3.2 93 5.61 2.2 13 13 1023.3 0 13.6 24.4 32.9 85.7 70.5 239.2
16 21:30 2.9 92 5.44 1.7 9 11 1023.2 0 13.3 24.1 32.3 84.2 68.5 231.9
16 21:20 2.6 91 5.27 1.3 9 9 1023.2 0 12.9 23.9 31.7 82.6 66.4 224.7
16 21:10 2.9 90 5.32 1.4 6 6 1023.2 0 13.0 23.9 31.8 82.9 66.8 226.2
16 21:00 3.5 90 5.54 2 0 7 1023.4 0 13.5 24.2 32.5 84.7 69.3 235.0
16 20:50 3.8 90 5.65 2.3 0 0 1023.3 0 13.7 24.3 32.8 85.5 70.5 239.3
16 20:40 4 90 5.73 2.5 6 7 1023.3 0 13.8 24.3 33.1 86.2 71.4 242.5
16 20:30 4.2 90 5.8 2.7 0 0 1023.4 0 14.0 24.4 33.3 86.7 72.2 245.2
16 20:20 4.2 89 5.74 2.6 0 0 1023.3 0 13.9 24.3 33.0 86.1 71.4 242.3
16 20:10 4.5 87 5.72 2.5 6 6 1023.3 0 13.8 24.2 32.8 85.5 70.8 240.5
16 20:00 5.1 88 6.02 3.3 7 11 1023.5 0 14.4 24.5 33.8 88.2 74.3 252.8
16 19:50 4.8 85 5.7 2.5 6 7 1023.3 0 13.7 24.1 32.6 85.0 70.3 238.6
16 19:40 5.6 85 6.01 3.3 7 7 1023.3 0 14.4 24.4 33.5 87.5 73.7 250.7
16 19:30 6.8 86 6.58 4.6 9 11 1023.4 0 15.6 25.0 35.4 92.3 80.2 273.7
16 19:20 6.6 87 6.57 4.6 7 9 1023.2 0 15.5 25.0 35.4 92.4 80.3 273.9
16 19:10 6.3 82 6.07 3.5 7 7 1023.2 0 14.5 24.3 33.5 87.3 73.8 251.3
16 19:00 8.4 81 6.87 5.3 6 7 1023.2 0 16.1 25.0 35.8 93.6 82.4 281.7
16 18:50 8.5 84 7.17 6 6 6 1023.1 0 16.8 25.5 37.0 96.7 86.4 295.5
16 18:40 7.5 84 6.73 5 6 7 1023.1 0 15.9 25.0 35.6 93.1 81.5 278.3
16 18:30 7.2 82 6.44 4.3 9 11 1023 0 15.2 24.6 34.6 90.3 77.9 265.6
16 18:20 7.9 80 6.57 4.7 11 13 1022.7 0 15.5 24.6 34.8 90.9 78.9 269.3
16 18:10 9 77 6.79 5.2 13 13 1022.7 0 15.9 24.7 35.2 92.0 80.7 275.7
16 18:00 9.1 77 6.83 5.3 13 15 1022.8 0 16.0 24.7 35.3 92.3 81.1 277.3
16 17:50 9.8 75 6.96 5.6 13 15 1022.6 0 16.3 24.7 35.5 92.8 82.1 280.8
16 17:40 10.2 74 7.04 5.8 15 15 1022.5 0 16.4 24.7 35.7 93.2 82.7 283.0
16 17:30 10.7 72 7.07 5.9 13 15 1022.6 0 16.5 24.7 35.6 93.0 82.6 282.6
16 17:20 11.9 65 6.88 5.5 11 11 1022.3 0 16.0 24.0 34.3 89.6 78.9 269.8
16 17:10 12.8 62 6.95 5.7 13 13 1022.3 0 16.1 23.9 34.2 89.3 78.9 269.8
16 17:00 14.1 58 7.04 6 13 13 1022.4 0 16.2 23.7 34.0 88.7 78.7 269.4
16 16:50 15.4 53 6.96 5.9 11 11 1022.3 0 16.0 23.2 33.1 86.5 76.4 261.6
16 16:40 16.2 50 6.89 5.8 11 11 1022.3 0 15.8 22.9 32.5 85.0 74.8 256.1
16 16:30 16.8 47 6.72 5.4 9 11 1022.5 0 15.5 22.5 31.7 82.7 72.3 247.1
16 16:20 17.1 46 6.7 5.4 9 11 1022.3 0 15.4 22.4 31.5 82.2 71.7 245.3
16 16:10 17.2 45 6.59 5.2 9 11 1022.3 0 15.2 22.2 31.1 81.1 70.3 240.5
16 16:00 17.2 45 6.59 5.2 13 17 1022.4 0 15.2 22.2 31.1 81.1 70.3 240.5
16 15:50 17.3 46 6.78 5.6 11 13 1022.3 0 15.6 22.5 31.7 82.8 72.5 248.0
16 15:40 17.3 45 6.63 5.3 11 13 1022.3 0 15.3 22.3 31.2 81.3 70.7 241.8
16 15:30 17.6 44 6.6 5.2 11 17 1022.5 0 15.2 22.2 31.0 80.8 70.1 239.7
16 15:20 18 41 6.3 4.6 9 11 1022.3 0 14.5 21.6 29.8 77.5 66.3 226.3
16 15:10 17.6 43 6.45 4.9 11 15 1022.3 0 14.9 21.9 30.4 79.3 68.4 233.6
16 15:00 18 39 5.99 3.9 7 13 1022.5 0 13.9 21.2 28.7 74.7 62.8 213.9
16 14:50 18.1 40 6.18 4.3 7 9 1022.4 0 14.3 21.4 29.3 76.3 64.8 221.2
16 14:40 18.2 39 6.06 4 6 7 1022.3 0 14.0 21.3 28.9 75.1 63.4 216.1
16 14:30 17.7 39 5.88 3.6 9 15 1022.5 0 13.7 21.1 28.4 73.9 61.7 210.3
16 14:20 17.5 40 5.96 3.8 7 9 1022.3 0 13.8 21.3 28.8 74.8 62.8 214.0
16 14:10 17.3 40 5.89 3.6 9 11 1022.3 0 13.7 21.2 28.6 74.4 62.1 211.7
16 14:00 17.7 41 6.19 4.3 9 13 1022.6 0 14.3 21.6 29.5 76.8 65.3 222.8
16 13:50 17.5 40 5.96 3.8 9 11 1022.6 0 13.8 21.3 28.8 74.9 62.8 214.0
16 13:40 17.5 42 6.26 4.5 6 7 1022.7 0 14.5 21.7 29.8 77.7 66.3 226.2
16 13:30 17.5 42 6.26 4.5 6 15 1023 0 14.5 21.7 29.8 77.7 66.3 226.2
16 13:20 17.5 41 6.11 4.1 7 9 1023 0 14.2 21.5 29.3 76.3 64.5 220.1
16 13:10 17.2 43 6.3 4.5 6 7 1023.2 0 14.6 21.9 30.1 78.4 67.0 228.7
16 13:00 17.5 42 6.26 4.5 6 9 1023.5 0 14.5 21.7 29.8 77.7 66.3 226.3
16 12:50 17.1 41 5.97 3.8 9 9 1023.4 0 13.9 21.4 29.0 75.4 63.3 215.6
16 12:40 17.1 43 6.26 4.4 2 6 1023.6 0 14.5 21.8 30.0 78.1 66.6 227.4
16 12:30 17 43 6.22 4.3 7 13 1023.9 0 14.4 21.8 29.9 77.9 66.3 226.1
16 12:20 16.8 43 6.15 4.2 9 13 1024 0 14.3 21.8 29.7 77.4 65.6 223.9
16 12:10 16.5 43 6.04 3.9 6 7 1024.2 0 14.0 21.7 29.5 76.7 64.6 220.2
16 12:00 16.2 45 6.21 4.3 9 15 1024.6 0 14.4 22.0 30.2 78.6 66.9 228.1
16 11:50 16 45 6.13 4.1 6 7 1024.6 0 14.3 21.9 30.0 78.0 66.1 225.4
16 11:40 16.3 46 6.38 4.7 13 15 1024.8 0 14.8 22.2 30.8 80.2 68.8 234.9
16 11:30 15.6 53 7.05 6.1 9 13 1025.2 0 16.2 23.4 33.5 87.5 77.5 265.5
16 11:20 15.1 53 6.84 5.6 11 13 1025.1 0 15.8 23.2 32.9 85.9 75.4 258.1
16 11:10 14.7 56 7.05 6 13 13 1025.2 0 16.2 23.7 33.9 88.4 78.4 268.5
16 11:00 14.4 56 6.92 5.7 11 15 1025.4 0 16.0 23.5 33.5 87.5 77.1 263.9
16 10:50 14.1 57 6.92 5.7 11 13 1025.3 0 16.0 23.6 33.6 87.8 77.4 264.8
16 10:40 13.4 58 6.74 5.3 11 13 1025.4 0 15.6 23.5 33.2 86.8 75.8 259.3
16 10:30 12.8 60 6.72 5.2 11 15 1025.5 0 15.6 23.7 33.4 87.2 76.2 260.4
16 10:20 12.6 63 6.97 5.8 11 13 1025.4 0 16.2 24.1 34.5 90.0 79.5 272.1
16 10:10 12 64 6.82 5.4 11 13 1025.5 0 15.9 24.0 34.1 89.1 78.2 267.4
16 10:00 11.3 66 6.73 5.2 15 17 1025.5 0 15.7 24.1 34.1 89.0 77.8 265.8
16 09:50 10.6 68 6.64 4.9 17 17 1025.3 0 15.5 24.1 34.0 88.8 77.3 264.0
16 09:40 10 69 6.49 4.6 19 20 1025.3 0 15.2 24.0 33.7 87.9 75.9 259.2
16 09:30 9.5 72 6.56 4.7 20 22 1025.5 0 15.4 24.3 34.2 89.2 77.4 264.0
16 09:20 8.7 75 6.49 4.5 20 22 1025.3 0 15.3 24.4 34.2 89.4 77.2 263.4
16 09:10 7.8 77 6.29 4 19 20 1025.2 0 14.9 24.3 33.8 88.2 75.5 257.1

Last Refresh: 17-Jul-2020 01:58:45

Most of the information presented on this site is sourced from the Bureau of Meteorology.  Copyright in all material sourced from the Bureau of Meteorology resides with the Commonwealth of Australia.